createdAt,value
2023-03-10T00:01:21.389Z,60.95
2023-03-10T00:03:49.736Z,60.46
2023-03-10T00:06:20.759Z,60.73
2023-03-10T00:08:48.529Z,60.44
2023-03-10T00:11:15.466Z,60.25
2023-03-10T00:13:42.843Z,60.09
2023-03-10T00:16:25.260Z,59.80
2023-03-10T00:18:53.154Z,59.83
2023-03-10T00:21:24.706Z,60.10
2023-03-10T00:23:53.038Z,60.24
2023-03-10T00:26:21.986Z,60.62
2023-03-10T00:28:50.017Z,61.08
2023-03-10T00:31:21.723Z,61.41
2023-03-10T00:33:49.405Z,61.90
2023-03-10T00:36:23.439Z,61.65
2023-03-10T00:38:53.076Z,61.18
2023-03-10T00:41:26.596Z,60.84
2023-03-10T00:43:54.337Z,61.10
2023-03-10T00:46:21.446Z,61.03
2023-03-10T00:48:48.615Z,61.18
2023-03-10T00:51:16.433Z,61.13
2023-03-10T00:53:43.721Z,61.03
2023-03-10T00:56:25.676Z,60.87
2023-03-10T00:58:55.958Z,61.07
2023-03-10T01:01:39.591Z,60.89
2023-03-10T01:04:12.105Z,61.74
2023-03-10T01:06:39.769Z,61.54
2023-03-10T01:09:07.737Z,61.39
2023-03-10T01:11:35.176Z,61.28
2023-03-10T01:14:05.953Z,61.18
2023-03-10T01:16:33.613Z,61.74
2023-03-10T01:19:00.894Z,61.86
2023-03-10T01:21:33.028Z,61.73
2023-03-10T01:24:01.364Z,61.82
2023-03-10T01:26:30.119Z,61.90
2023-03-10T01:28:57.350Z,62.04
2023-03-10T01:31:24.299Z,62.12
2023-03-10T01:33:51.295Z,62.59
2023-03-10T01:36:25.789Z,62.90
2023-03-10T01:38:55.744Z,62.56
2023-03-10T01:41:23.427Z,63.08
2023-03-10T01:43:53.768Z,62.97
2023-03-10T01:46:44.157Z,62.71
2023-03-10T01:49:26.480Z,62.38
2023-03-10T01:52:11.666Z,62.29
2023-03-10T01:55:07.584Z,62.33
2023-03-10T01:57:41.733Z,62.20
2023-03-10T02:00:12.851Z,62.44
2023-03-10T02:03:15.460Z,62.39
2023-03-10T02:05:51.903Z,62.76
2023-03-10T02:08:20.669Z,62.43
2023-03-10T02:10:49.845Z,62.56
2023-03-10T02:13:17.352Z,62.70
2023-03-10T02:15:45.238Z,63.20
2023-03-10T02:18:15.171Z,63.74
2023-03-10T02:21:03.968Z,63.30
2023-03-10T02:23:58.662Z,63.53
2023-03-10T02:26:56.759Z,62.98
2023-03-10T02:29:52.470Z,62.70
2023-03-10T02:32:24.883Z,62.92
2023-03-10T02:34:51.993Z,63.06
2023-03-10T02:37:27.267Z,63.02
2023-03-10T02:39:55.518Z,63.44
2023-03-10T02:42:26.799Z,63.34
2023-03-10T02:44:54.612Z,63.18
2023-03-10T02:47:21.715Z,63.59
2023-03-10T02:49:48.879Z,63.51
2023-03-10T02:52:39.504Z,64.04
2023-03-10T02:55:07.117Z,63.99
2023-03-10T02:57:34.217Z,64.04
2023-03-10T03:00:02.495Z,64.02
2023-03-10T03:02:31.095Z,63.96
2023-03-10T03:04:58.115Z,63.77
2023-03-10T03:07:25.184Z,63.57
2023-03-10T03:09:52.345Z,62.90
2023-03-10T03:12:19.210Z,62.98
2023-03-10T03:14:47.080Z,63.08
2023-03-10T03:17:14.323Z,63.31
2023-03-10T03:19:41.649Z,63.33
2023-03-10T03:22:08.624Z,63.60
2023-03-10T03:24:35.625Z,63.37
2023-03-10T03:27:02.982Z,63.28
2023-03-10T03:29:30.039Z,63.33
2023-03-10T03:31:57.205Z,63.36
2023-03-10T03:34:29.146Z,63.29
2023-03-10T03:36:59.691Z,63.47
2023-03-10T03:39:34.677Z,63.36
2023-03-10T03:42:05.088Z,63.34
2023-03-10T03:44:41.070Z,62.86
2023-03-10T03:47:10.816Z,62.95
2023-03-10T03:49:40.529Z,62.63
2023-03-10T03:52:08.501Z,62.69
2023-03-10T03:54:35.905Z,62.52
2023-03-10T03:57:03.722Z,62.36
2023-03-10T03:59:31.480Z,61.76
2023-03-10T04:01:58.519Z,61.59
2023-03-10T04:04:26.200Z,61.85
2023-03-10T04:06:53.583Z,61.49
2023-03-10T04:09:20.630Z,61.63
2023-03-10T04:11:47.911Z,61.21
2023-03-10T04:14:14.855Z,60.80
2023-03-10T04:16:42.185Z,60.60
2023-03-10T04:19:09.410Z,60.65
2023-03-10T04:21:40.903Z,60.22
2023-03-10T04:24:08.598Z,59.71
2023-03-10T04:26:35.892Z,59.96
2023-03-10T04:29:03.564Z,59.53
2023-03-10T04:31:32.975Z,59.37
2023-03-10T04:34:02.228Z,59.13
2023-03-10T04:36:29.343Z,59.12
2023-03-10T04:38:59.261Z,58.83
2023-03-10T04:41:30.151Z,58.87
2023-03-10T04:43:57.274Z,58.81
2023-03-10T04:46:24.491Z,58.88
2023-03-10T04:48:51.896Z,58.74
2023-03-10T04:51:20.014Z,58.57
2023-03-10T04:53:51.643Z,58.70
2023-03-10T04:56:19.550Z,58.86
2023-03-10T04:58:47.211Z,59.05
2023-03-10T05:01:15.749Z,59.01
2023-03-10T05:03:47.448Z,58.80
2023-03-10T05:06:18.302Z,58.89
2023-03-10T05:08:50.884Z,58.96
2023-03-10T05:11:20.776Z,58.76
2023-03-10T05:13:48.248Z,58.86
2023-03-10T05:16:22.015Z,58.94
2023-03-10T05:18:50.413Z,58.84
2023-03-10T05:21:22.268Z,58.80
2023-03-10T05:23:50.853Z,58.82
2023-03-10T05:26:19.291Z,58.89
2023-03-10T05:28:46.706Z,59.02
2023-03-10T05:31:17.335Z,59.00
2023-03-10T05:33:47.808Z,59.12
2023-03-10T05:36:14.790Z,58.15
2023-03-10T05:38:44.334Z,58.19
2023-03-10T05:41:13.956Z,58.36
2023-03-10T05:43:42.523Z,57.56
2023-03-10T05:46:12.520Z,56.99
2023-03-10T05:48:45.439Z,57.06
2023-03-10T05:51:13.420Z,56.11
2023-03-10T05:53:41.997Z,55.83
2023-03-10T05:56:18.236Z,56.64
2023-03-10T05:58:50.892Z,55.46
2023-03-10T06:01:20.292Z,54.95
2023-03-10T06:03:47.718Z,54.48
2023-03-10T06:06:14.770Z,53.52
2023-03-10T06:08:43.024Z,52.75
2023-03-10T06:11:10.232Z,52.45
2023-03-10T06:13:37.573Z,52.66
2023-03-10T06:16:06.986Z,50.85
2023-03-10T06:18:34.850Z,52.01
2023-03-10T06:21:10.435Z,51.25
2023-03-10T06:23:37.921Z,51.35
2023-03-10T06:26:09.080Z,51.46
2023-03-10T06:28:39.086Z,50.73
2023-03-10T06:31:20.756Z,51.50
2023-03-10T06:33:48.005Z,50.29
2023-03-10T06:36:16.538Z,48.44
2023-03-10T06:38:44.242Z,47.44
2023-03-10T06:41:11.879Z,48.31
2023-03-10T06:43:39.592Z,47.06
2023-03-10T06:46:08.785Z,46.82
2023-03-10T06:48:37.147Z,44.55
2023-03-10T06:51:10.666Z,44.77
2023-03-10T06:53:38.009Z,45.07
2023-03-10T06:56:10.595Z,45.09
2023-03-10T06:58:38.436Z,44.86
2023-03-10T07:01:07.454Z,43.72
2023-03-10T07:03:36.206Z,42.54
2023-03-10T07:06:03.288Z,44.38
2023-03-10T07:08:30.695Z,41.81
2023-03-10T07:10:57.860Z,42.84
2023-03-10T07:13:25.138Z,41.71
2023-03-10T07:15:52.327Z,42.21
2023-03-10T07:18:19.767Z,42.65
2023-03-10T07:20:52.967Z,41.21
2023-03-10T07:23:20.335Z,41.68
2023-03-10T07:25:55.971Z,39.86
2023-03-10T07:28:24.896Z,41.84
2023-03-10T07:30:52.366Z,41.39
2023-03-10T07:33:19.311Z,38.71
2023-03-10T07:35:46.414Z,39.52
2023-03-10T07:38:13.626Z,40.14
2023-03-10T07:40:41.579Z,39.65
2023-03-10T07:43:08.517Z,38.61
2023-03-10T07:45:38.212Z,37.66
2023-03-10T07:48:06.012Z,38.94
2023-03-10T07:50:33.289Z,39.18
2023-03-10T07:53:00.275Z,38.55
2023-03-10T07:55:27.250Z,37.78
2023-03-10T07:57:56.691Z,36.99
2023-03-10T08:00:23.798Z,37.49
2023-03-10T08:02:50.856Z,37.33
2023-03-10T08:05:17.940Z,36.86
2023-03-10T08:07:44.925Z,37.15
2023-03-10T08:10:12.863Z,38.99
2023-03-10T08:12:39.849Z,37.75
2023-03-10T08:15:07.602Z,37.82
2023-03-10T08:17:34.492Z,38.46
2023-03-10T08:20:01.963Z,38.55
2023-03-10T08:22:29.058Z,39.22
2023-03-10T08:24:56.246Z,39.11
2023-03-10T08:27:23.269Z,38.85
2023-03-10T08:29:50.533Z,38.83
2023-03-10T08:32:18.356Z,39.04
2023-03-10T08:34:45.620Z,39.88
2023-03-10T08:37:12.527Z,39.60
2023-03-10T08:39:40.262Z,40.11
2023-03-10T08:42:11.508Z,39.78
2023-03-10T08:44:39.434Z,39.88
2023-03-10T08:47:06.646Z,39.89
2023-03-10T08:49:33.980Z,40.63
2023-03-10T08:52:01.176Z,40.36
2023-03-10T08:54:28.834Z,41.32
2023-03-10T08:56:57.046Z,41.42
2023-03-10T08:59:24.039Z,41.31
2023-03-10T09:01:51.073Z,41.98
2023-03-10T09:04:18.155Z,42.09
2023-03-10T09:06:45.173Z,41.51
2023-03-10T09:09:13.060Z,42.99
2023-03-10T09:11:41.372Z,43.04
2023-03-10T09:14:11.011Z,42.86
2023-03-10T09:16:39.564Z,43.18
2023-03-10T09:19:06.690Z,43.13
2023-03-10T09:21:34.030Z,43.21
2023-03-10T09:24:03.646Z,43.42
2023-03-10T09:26:30.917Z,43.46
2023-03-10T09:28:57.932Z,44.22
2023-03-10T09:31:34.539Z,44.66
2023-03-10T09:34:02.080Z,44.32
2023-03-10T09:36:29.799Z,44.92
2023-03-10T09:39:00.458Z,45.54
2023-03-10T09:42:25.993Z,46.58
2023-03-10T09:45:37.631Z,48.20
2023-03-10T09:48:26.369Z,49.22
2023-03-10T09:50:56.499Z,49.52
2023-03-10T09:54:04.232Z,49.18
2023-03-10T09:56:36.292Z,49.77
2023-03-10T09:59:09.696Z,50.04
2023-03-10T10:01:37.833Z,49.66
2023-03-10T10:04:19.575Z,49.24
2023-03-10T10:06:49.056Z,48.78
2023-03-10T10:09:28.098Z,48.92
2023-03-10T10:11:55.962Z,48.63
2023-03-10T10:14:31.329Z,48.50
2023-03-10T10:17:52.961Z,48.22
2023-03-10T10:20:29.522Z,47.06
2023-03-10T10:22:56.463Z,46.85
2023-03-10T10:25:31.967Z,47.21
2023-03-10T10:28:01.409Z,46.99
2023-03-10T10:30:47.524Z,46.84
2023-03-10T10:33:16.499Z,46.39
2023-03-10T10:36:02.623Z,46.22
2023-03-10T10:38:32.414Z,46.49
2023-03-10T10:41:08.068Z,46.24
2023-03-10T10:43:44.589Z,45.41
2023-03-10T10:46:15.036Z,45.37
2023-03-10T10:48:51.488Z,43.96
2023-03-10T10:51:28.992Z,42.88
2023-03-10T10:53:59.551Z,43.23
2023-03-10T10:56:31.245Z,41.86
2023-03-10T10:59:04.055Z,42.06
2023-03-10T11:02:11.919Z,42.62
2023-03-10T11:04:45.829Z,42.20
2023-03-10T11:07:25.290Z,43.32
2023-03-10T11:09:52.955Z,42.73
2023-03-10T11:12:36.000Z,42.36
2023-03-10T11:15:37.179Z,42.43
2023-03-10T11:18:13.163Z,41.14
2023-03-10T11:21:18.167Z,41.70
2023-03-10T11:24:26.001Z,41.16
2023-03-10T11:27:05.332Z,41.01
2023-03-10T11:29:56.282Z,41.42
2023-03-10T11:32:36.637Z,40.62
2023-03-10T11:35:32.973Z,40.61
2023-03-10T11:38:21.788Z,40.55
2023-03-10T11:40:54.164Z,40.92
2023-03-10T11:43:28.904Z,41.24
2023-03-10T11:46:01.472Z,41.01
2023-03-10T11:48:57.073Z,41.41
2023-03-10T11:51:36.392Z,41.74
2023-03-10T11:54:21.356Z,40.65
2023-03-10T11:56:51.088Z,41.02
2023-03-10T11:59:33.644Z,40.36
2023-03-10T12:02:29.908Z,40.17
2023-03-10T12:05:21.796Z,40.01
2023-03-10T12:08:02.825Z,40.38
2023-03-10T12:10:31.390Z,39.92
2023-03-10T12:12:58.482Z,40.43
2023-03-10T12:15:39.769Z,39.66
2023-03-10T12:18:08.171Z,40.34
2023-03-10T12:20:36.021Z,39.75
2023-03-10T12:23:26.928Z,39.26
2023-03-10T12:25:54.014Z,39.75
2023-03-10T12:28:29.072Z,39.82
2023-03-10T12:31:12.133Z,39.50
2023-03-10T12:33:50.622Z,39.40
2023-03-10T12:36:31.718Z,38.10
2023-03-10T12:39:23.054Z,38.73
2023-03-10T12:41:53.140Z,38.44
2023-03-10T12:44:41.123Z,38.02
2023-03-10T12:47:08.104Z,38.27
2023-03-10T12:49:40.921Z,38.39
2023-03-10T12:52:08.021Z,38.37
2023-03-10T12:55:08.731Z,37.58
2023-03-10T12:58:12.239Z,37.54
2023-03-10T13:00:58.618Z,36.51
2023-03-10T13:03:35.388Z,36.58
2023-03-10T13:06:07.527Z,37.17
2023-03-10T13:08:44.932Z,37.69
2023-03-10T13:11:25.169Z,37.55
2023-03-10T13:13:59.175Z,37.79
2023-03-10T13:16:26.188Z,37.41
2023-03-10T13:18:54.730Z,37.04
2023-03-10T13:21:28.533Z,36.01
2023-03-10T13:23:57.371Z,36.79
2023-03-10T13:26:25.240Z,37.24
2023-03-10T13:28:57.944Z,35.66
2023-03-10T13:31:34.665Z,36.12
2023-03-10T13:34:20.636Z,35.84
2023-03-10T13:36:48.882Z,36.13
2023-03-10T13:39:27.360Z,36.15
2023-03-10T13:41:58.730Z,36.09
2023-03-10T13:44:28.257Z,35.75
2023-03-10T13:47:01.488Z,36.66
2023-03-10T13:49:34.690Z,35.82
2023-03-10T13:52:07.774Z,36.99
2023-03-10T13:54:37.014Z,36.16
2023-03-10T13:57:33.736Z,36.44
2023-03-10T14:00:01.819Z,36.17
2023-03-10T14:02:36.220Z,35.58
2023-03-10T14:05:06.219Z,35.52
2023-03-10T14:07:36.695Z,34.00
2023-03-10T14:10:08.058Z,35.65
2023-03-10T14:12:42.354Z,35.36
2023-03-10T14:15:24.492Z,35.35
2023-03-10T14:18:06.488Z,35.42
2023-03-10T14:20:37.081Z,35.82
2023-03-10T14:23:19.361Z,35.89
2023-03-10T14:25:47.690Z,35.25
2023-03-10T14:28:33.254Z,35.05
2023-03-10T14:31:02.527Z,35.55
2023-03-10T14:33:30.252Z,36.29
2023-03-10T14:35:57.194Z,36.26
2023-03-10T14:38:24.240Z,35.84
2023-03-10T14:40:54.508Z,35.95
2023-03-10T14:43:25.811Z,36.10
2023-03-10T14:46:01.054Z,35.44
2023-03-10T14:48:34.502Z,36.59
2023-03-10T14:51:01.627Z,36.97
2023-03-10T14:53:30.975Z,36.76
2023-03-10T14:56:01.763Z,37.06
2023-03-10T14:58:35.181Z,37.23
2023-03-10T15:01:02.719Z,37.51
2023-03-10T15:03:29.641Z,37.60
2023-03-10T15:05:56.806Z,37.16
2023-03-10T15:08:23.832Z,37.16
2023-03-10T15:10:52.016Z,37.11
2023-03-10T15:13:23.095Z,37.01
2023-03-10T15:15:50.915Z,36.95
2023-03-10T15:18:21.749Z,37.17
2023-03-10T15:20:49.255Z,37.04
2023-03-10T15:23:19.863Z,38.62
2023-03-10T15:25:47.590Z,39.15
2023-03-10T15:28:14.812Z,39.54
2023-03-10T15:30:43.070Z,39.97
2023-03-10T15:33:10.763Z,40.81
2023-03-10T15:35:39.991Z,40.97
2023-03-10T15:38:07.098Z,41.64
2023-03-10T15:40:35.474Z,42.04
2023-03-10T15:43:02.703Z,42.04
2023-03-10T15:45:31.294Z,41.80
2023-03-10T15:47:59.142Z,41.26
2023-03-10T15:50:27.486Z,40.70
2023-03-10T15:52:58.878Z,39.99
2023-03-10T15:55:27.587Z,39.72
2023-03-10T15:57:56.082Z,39.42
2023-03-10T16:00:26.401Z,39.15
2023-03-10T16:02:54.142Z,38.67
2023-03-10T16:05:21.474Z,38.06
2023-03-10T16:07:48.505Z,38.67
2023-03-10T16:10:19.823Z,38.96
2023-03-10T16:12:46.899Z,39.61
2023-03-10T16:15:16.946Z,39.63
2023-03-10T16:17:45.202Z,39.66
2023-03-10T16:20:13.799Z,40.28
2023-03-10T16:22:43.203Z,40.67
2023-03-10T16:25:18.971Z,41.23
2023-03-10T16:27:47.578Z,41.99
2023-03-10T16:30:17.292Z,42.62
2023-03-10T16:32:46.420Z,42.93
2023-03-10T16:35:13.929Z,43.61
2023-03-10T16:37:42.715Z,43.88
2023-03-10T16:40:11.481Z,43.90
2023-03-10T16:42:38.925Z,44.77
2023-03-10T16:45:07.440Z,45.35
2023-03-10T16:47:34.429Z,45.06
2023-03-10T16:50:01.409Z,45.24
2023-03-10T16:52:28.370Z,45.24
2023-03-10T16:55:01.196Z,45.84
2023-03-10T16:57:28.133Z,45.58
2023-03-10T16:59:55.067Z,45.93
2023-03-10T17:02:22.027Z,46.07
2023-03-10T17:04:49.085Z,46.82
2023-03-10T17:07:16.527Z,46.31
2023-03-10T17:09:43.556Z,46.49
2023-03-10T17:12:10.469Z,46.42
2023-03-10T17:14:37.643Z,46.45
2023-03-10T17:17:06.626Z,46.27
2023-03-10T17:19:34.761Z,46.34
2023-03-10T17:22:01.761Z,46.38
2023-03-10T17:24:29.561Z,46.66
2023-03-10T17:26:57.097Z,46.86
2023-03-10T17:29:24.127Z,46.72
2023-03-10T17:31:51.789Z,46.72
2023-03-10T17:34:20.108Z,47.08
2023-03-10T17:36:50.753Z,46.98
2023-03-10T17:39:21.376Z,47.50
2023-03-10T17:41:49.283Z,47.66
2023-03-10T17:44:16.950Z,47.97
2023-03-10T17:46:44.208Z,48.08
2023-03-10T17:49:15.297Z,47.54
2023-03-10T17:51:44.287Z,48.70
2023-03-10T17:54:20.216Z,49.26
2023-03-10T17:56:48.721Z,49.73
2023-03-10T17:59:16.677Z,49.60
2023-03-10T18:01:45.801Z,50.28
2023-03-10T18:04:13.302Z,49.48
2023-03-10T18:06:40.460Z,50.37
2023-03-10T18:09:11.504Z,51.05
2023-03-10T18:11:38.993Z,50.86
2023-03-10T18:14:06.550Z,51.17
2023-03-10T18:16:38.921Z,51.22
2023-03-10T18:19:10.474Z,51.86
2023-03-10T18:21:38.604Z,52.27
2023-03-10T18:24:06.495Z,52.38
2023-03-10T18:26:33.796Z,52.56
2023-03-10T18:29:01.073Z,52.60
2023-03-10T18:31:34.159Z,52.69
2023-03-10T18:34:02.253Z,52.70
2023-03-10T18:36:30.163Z,52.71
2023-03-10T18:38:57.874Z,52.76
2023-03-10T18:41:27.770Z,52.73
2023-03-10T18:43:54.946Z,52.80
2023-03-10T18:46:22.515Z,52.58
2023-03-10T18:48:55.866Z,52.70
2023-03-10T18:51:28.113Z,52.63
2023-03-10T18:53:55.640Z,52.73
2023-03-10T18:56:25.597Z,52.66
2023-03-10T18:58:52.637Z,52.52
2023-03-10T19:01:19.536Z,52.32
2023-03-10T19:03:46.730Z,52.07
2023-03-10T19:06:13.877Z,52.13
2023-03-10T19:08:41.509Z,51.70
2023-03-10T19:11:08.606Z,51.91
2023-03-10T19:13:40.267Z,51.83
2023-03-10T19:16:09.408Z,51.85
2023-03-10T19:18:36.775Z,52.27
2023-03-10T19:21:04.238Z,52.50
2023-03-10T19:23:32.238Z,53.12
2023-03-10T19:25:59.228Z,53.41
2023-03-10T19:28:26.406Z,53.91
2023-03-10T19:30:53.418Z,54.06
2023-03-10T19:33:20.614Z,53.91
2023-03-10T19:35:47.495Z,54.22
2023-03-10T19:38:14.733Z,53.77
2023-03-10T19:40:46.064Z,54.15
2023-03-10T19:43:13.253Z,53.93
2023-03-10T19:45:40.467Z,54.34
2023-03-10T19:48:07.593Z,54.03
2023-03-10T19:50:34.485Z,53.74
2023-03-10T19:53:01.610Z,53.86
2023-03-10T19:55:29.519Z,53.92
2023-03-10T19:57:56.698Z,54.56
2023-03-10T20:00:30.890Z,54.88
2023-03-10T20:02:58.397Z,54.99
2023-03-10T20:05:26.711Z,55.59
2023-03-10T20:07:53.932Z,55.68
2023-03-10T20:10:20.813Z,56.10
2023-03-10T20:12:51.046Z,56.40
2023-03-10T20:15:18.668Z,56.65
2023-03-10T20:17:45.924Z,56.82
2023-03-10T20:20:15.108Z,57.09
2023-03-10T20:22:47.806Z,57.05
2023-03-10T20:25:19.364Z,56.64
2023-03-10T20:27:48.132Z,56.70
2023-03-10T20:30:27.581Z,56.14
2023-03-10T20:32:55.735Z,55.51
2023-03-10T20:35:23.484Z,55.48
2023-03-10T20:37:50.610Z,55.09
2023-03-10T20:40:22.982Z,54.09
2023-03-10T20:42:56.898Z,53.61
2023-03-10T20:45:24.073Z,52.90
2023-03-10T20:47:53.364Z,52.62
2023-03-10T20:50:20.780Z,52.43
2023-03-10T20:52:48.401Z,52.54
2023-03-10T20:55:19.691Z,52.29
2023-03-10T20:57:48.498Z,52.20
2023-03-10T21:00:17.546Z,52.11
2023-03-10T21:02:46.546Z,51.92
2023-03-10T21:05:13.906Z,52.29
2023-03-10T21:07:40.947Z,51.81
2023-03-10T21:10:16.886Z,52.24
2023-03-10T21:12:44.672Z,52.27
2023-03-10T21:15:16.696Z,52.34
2023-03-10T21:17:44.089Z,52.52
2023-03-10T21:20:15.610Z,52.63
2023-03-10T21:22:43.032Z,52.50
2023-03-10T21:25:16.931Z,52.51
2023-03-10T21:27:49.650Z,51.91
2023-03-10T21:30:17.478Z,51.99
2023-03-10T21:32:45.062Z,51.46
2023-03-10T21:35:13.729Z,51.38
2023-03-10T21:37:42.450Z,51.35
2023-03-10T21:40:11.813Z,50.92
2023-03-10T21:42:38.972Z,50.78
2023-03-10T21:45:07.562Z,50.35
2023-03-10T21:47:34.607Z,50.31
2023-03-10T21:50:01.532Z,50.38
2023-03-10T21:52:28.412Z,50.52
2023-03-10T21:54:55.412Z,50.87
2023-03-10T21:57:22.364Z,50.91
2023-03-10T21:59:49.398Z,51.16
2023-03-10T22:02:30.632Z,51.32
2023-03-10T22:04:57.750Z,51.34
2023-03-10T22:07:24.831Z,51.12
2023-03-10T22:09:51.761Z,51.56
2023-03-10T22:12:18.649Z,51.42
2023-03-10T22:14:45.967Z,51.00
2023-03-10T22:17:12.954Z,51.15
2023-03-10T22:19:39.950Z,51.18
2023-03-10T22:22:06.870Z,51.37
2023-03-10T22:24:34.089Z,51.35
2023-03-10T22:27:01.100Z,51.03
2023-03-10T22:29:28.013Z,51.17
2023-03-10T22:31:56.194Z,50.94
2023-03-10T22:34:23.177Z,51.24
2023-03-10T22:36:50.228Z,50.80
2023-03-10T22:39:17.290Z,50.87
2023-03-10T22:41:44.561Z,50.65
2023-03-10T22:44:11.820Z,50.25
2023-03-10T22:46:39.325Z,50.49
2023-03-10T22:49:06.465Z,49.62
2023-03-10T22:51:33.428Z,49.71
2023-03-10T22:54:00.897Z,49.52
2023-03-10T22:56:27.858Z,49.41
2023-03-10T22:58:55.596Z,49.09
2023-03-10T23:01:23.077Z,49.12
2023-03-10T23:03:50.616Z,49.18
2023-03-10T23:06:18.776Z,49.49
2023-03-10T23:08:46.688Z,49.33
2023-03-10T23:11:15.748Z,49.80
2023-03-10T23:13:43.112Z,49.50
2023-03-10T23:16:10.206Z,49.81
2023-03-10T23:18:37.160Z,49.77
2023-03-10T23:21:04.888Z,49.67
2023-03-10T23:23:31.975Z,49.69
2023-03-10T23:25:59.067Z,49.79
2023-03-10T23:28:26.308Z,49.89
2023-03-10T23:30:54.247Z,49.89
2023-03-10T23:33:24.059Z,50.22
2023-03-10T23:35:53.945Z,50.59
2023-03-10T23:38:23.771Z,50.15
2023-03-10T23:40:52.614Z,50.20
2023-03-10T23:43:19.726Z,50.13
2023-03-10T23:45:47.023Z,50.21
2023-03-10T23:48:17.214Z,50.12
2023-03-10T23:50:46.484Z,50.37
2023-03-10T23:53:16.135Z,52.10
2023-03-10T23:55:46.071Z,54.79
2023-03-10T23:58:16.591Z,58.51
